Terminal Aerodrome Forecast
Issued by NWS Twin Cities, MN

Home | Current Version | Previous Version | Graphics & Text | Print | Product List | Glossary On
Versions: 1 2 3 4 5 6 7 8 9 10 11 12 13
000
FTUS43 KMPX 171120
TAFEAU
TAF
KEAU 171120Z 1712/1812 32003KT P6SM FEW250
     FM171800 29008KT P6SM FEW250
     FM180100 31003KT P6SM FEW250
     FM181100 07008KT P6SM FEW200=

USA.gov is the U.S. government's official web portal to all federal, state and local government web resources and services.